sensor_id;sensor_type;location;lat;lon;timestamp;P1;durP1;ratioP1;P2;durP2;ratioP2
65187;SDS011;51775;51.148;6.950;2023-08-07T00:01:12;0.85;;;0.50;;
65187;SDS011;51775;51.148;6.950;2023-08-07T00:03:37;1.13;;;0.40;;
65187;SDS011;51775;51.148;6.950;2023-08-07T00:06:05;0.82;;;0.50;;
65187;SDS011;51775;51.148;6.950;2023-08-07T00:08:30;0.90;;;0.40;;
65187;SDS011;51775;51.148;6.950;2023-08-07T00:11:08;0.90;;;0.47;;
65187;SDS011;51775;51.148;6.950;2023-08-07T00:13:34;0.93;;;0.50;;
65187;SDS011;51775;51.148;6.950;2023-08-07T00:16:00;1.17;;;0.50;;
65187;SDS011;51775;51.148;6.950;2023-08-07T00:18:25;1.02;;;0.50;;
65187;SDS011;51775;51.148;6.950;2023-08-07T00:20:50;0.93;;;0.50;;
65187;SDS011;51775;51.148;6.950;2023-08-07T00:23:15;0.80;;;0.40;;
65187;SDS011;51775;51.148;6.950;2023-08-07T00:25:41;1.02;;;0.60;;
65187;SDS011;51775;51.148;6.950;2023-08-07T00:28:06;0.95;;;0.50;;
65187;SDS011;51775;51.148;6.950;2023-08-07T00:30:31;0.47;;;0.47;;
65187;SDS011;51775;51.148;6.950;2023-08-07T00:32:57;0.75;;;0.50;;
65187;SDS011;51775;51.148;6.950;2023-08-07T00:35:22;0.60;;;0.50;;
65187;SDS011;51775;51.148;6.950;2023-08-07T00:37:47;0.60;;;0.38;;
65187;SDS011;51775;51.148;6.950;2023-08-07T00:40:12;0.50;;;0.40;;
65187;SDS011;51775;51.148;6.950;2023-08-07T00:42:38;0.45;;;0.38;;
65187;SDS011;51775;51.148;6.950;2023-08-07T00:45:03;0.90;;;0.40;;
65187;SDS011;51775;51.148;6.950;2023-08-07T00:47:29;0.68;;;0.38;;
65187;SDS011;51775;51.148;6.950;2023-08-07T00:49:55;1.23;;;0.43;;
65187;SDS011;51775;51.148;6.950;2023-08-07T00:52:22;0.50;;;0.40;;
65187;SDS011;51775;51.148;6.950;2023-08-07T00:54:48;1.75;;;0.60;;
65187;SDS011;51775;51.148;6.950;2023-08-07T00:57:13;0.70;;;0.50;;
65187;SDS011;51775;51.148;6.950;2023-08-07T00:59:39;1.13;;;0.57;;
65187;SDS011;51775;51.148;6.950;2023-08-07T01:02:04;0.75;;;0.50;;
65187;SDS011;51775;51.148;6.950;2023-08-07T01:04:30;0.95;;;0.50;;
65187;SDS011;51775;51.148;6.950;2023-08-07T01:06:56;1.65;;;0.50;;
65187;SDS011;51775;51.148;6.950;2023-08-07T01:09:21;0.80;;;0.40;;
65187;SDS011;51775;51.148;6.950;2023-08-07T01:11:51;0.70;;;0.47;;
65187;SDS011;51775;51.148;6.950;2023-08-07T01:14:33;0.95;;;0.50;;
65187;SDS011;51775;51.148;6.950;2023-08-07T01:17:12;1.35;;;0.52;;
65187;SDS011;51775;51.148;6.950;2023-08-07T01:19:40;1.17;;;0.52;;
65187;SDS011;51775;51.148;6.950;2023-08-07T01:24:36;0.60;;;0.40;;
65187;SDS011;51775;51.148;6.950;2023-08-07T01:27:28;0.45;;;0.40;;
65187;SDS011;51775;51.148;6.950;2023-08-07T01:29:59;0.93;;;0.50;;
65187;SDS011;51775;51.148;6.950;2023-08-07T01:35:32;0.50;;;0.40;;
65187;SDS011;51775;51.148;6.950;2023-08-07T01:37:59;1.27;;;0.52;;
65187;SDS011;51775;51.148;6.950;2023-08-07T01:40:26;1.13;;;0.60;;
65187;SDS011;51775;51.148;6.950;2023-08-07T01:42:53;1.20;;;0.60;;
65187;SDS011;51775;51.148;6.950;2023-08-07T01:45:22;1.13;;;0.52;;
65187;SDS011;51775;51.148;6.950;2023-08-07T01:47:48;0.93;;;0.60;;
65187;SDS011;51775;51.148;6.950;2023-08-07T01:50:14;0.95;;;0.60;;
65187;SDS011;51775;51.148;6.950;2023-08-07T01:52:39;0.75;;;0.50;;
65187;SDS011;51775;51.148;6.950;2023-08-07T01:55:04;1.38;;;0.50;;
65187;SDS011;51775;51.148;6.950;2023-08-07T01:57:30;0.98;;;0.60;;
65187;SDS011;51775;51.148;6.950;2023-08-07T01:59:55;0.45;;;0.40;;
65187;SDS011;51775;51.148;6.950;2023-08-07T02:02:20;1.45;;;0.55;;
65187;SDS011;51775;51.148;6.950;2023-08-07T02:04:45;1.17;;;0.65;;
65187;SDS011;51775;51.148;6.950;2023-08-07T02:07:11;0.82;;;0.43;;
65187;SDS011;51775;51.148;6.950;2023-08-07T02:09:36;0.73;;;0.40;;
65187;SDS011;51775;51.148;6.950;2023-08-07T02:12:01;1.52;;;0.65;;
65187;SDS011;51775;51.148;6.950;2023-08-07T02:14:27;0.70;;;0.57;;
65187;SDS011;51775;51.148;6.950;2023-08-07T02:16:52;0.70;;;0.50;;
65187;SDS011;51775;51.148;6.950;2023-08-07T02:19:17;1.20;;;0.60;;
65187;SDS011;51775;51.148;6.950;2023-08-07T02:21:42;1.02;;;0.57;;
65187;SDS011;51775;51.148;6.950;2023-08-07T02:24:08;1.10;;;0.50;;
65187;SDS011;51775;51.148;6.950;2023-08-07T02:26:33;0.32;;;0.32;;
65187;SDS011;51775;51.148;6.950;2023-08-07T02:28:58;0.70;;;0.50;;
65187;SDS011;51775;51.148;6.950;2023-08-07T02:31:23;0.82;;;0.50;;
65187;SDS011;51775;51.148;6.950;2023-08-07T02:33:49;1.10;;;0.65;;
65187;SDS011;51775;51.148;6.950;2023-08-07T02:36:14;0.82;;;0.60;;
65187;SDS011;51775;51.148;6.950;2023-08-07T02:38:39;0.82;;;0.65;;
65187;SDS011;51775;51.148;6.950;2023-08-07T02:41:04;0.80;;;0.50;;
65187;SDS011;51775;51.148;6.950;2023-08-07T02:43:30;0.57;;;0.50;;
65187;SDS011;51775;51.148;6.950;2023-08-07T02:45:55;0.93;;;0.50;;
65187;SDS011;51775;51.148;6.950;2023-08-07T02:48:20;0.93;;;0.60;;
65187;SDS011;51775;51.148;6.950;2023-08-07T02:50:45;1.60;;;0.70;;
65187;SDS011;51775;51.148;6.950;2023-08-07T02:53:11;1.27;;;0.70;;
65187;SDS011;51775;51.148;6.950;2023-08-07T02:55:36;0.75;;;0.57;;
65187;SDS011;51775;51.148;6.950;2023-08-07T02:58:01;1.47;;;0.70;;
65187;SDS011;51775;51.148;6.950;2023-08-07T03:00:26;0.70;;;0.50;;
65187;SDS011;51775;51.148;6.950;2023-08-07T03:02:52;0.98;;;0.50;;
65187;SDS011;51775;51.148;6.950;2023-08-07T03:05:17;0.77;;;0.50;;
65187;SDS011;51775;51.148;6.950;2023-08-07T03:07:42;0.90;;;0.60;;
65187;SDS011;51775;51.148;6.950;2023-08-07T03:10:08;1.33;;;0.60;;
65187;SDS011;51775;51.148;6.950;2023-08-07T03:12:33;1.90;;;0.57;;
65187;SDS011;51775;51.148;6.950;2023-08-07T03:14:58;1.73;;;0.55;;
65187;SDS011;51775;51.148;6.950;2023-08-07T03:17:23;1.00;;;0.50;;
65187;SDS011;51775;51.148;6.950;2023-08-07T03:19:49;1.13;;;0.57;;
65187;SDS011;51775;51.148;6.950;2023-08-07T03:22:14;1.10;;;0.60;;
65187;SDS011;51775;51.148;6.950;2023-08-07T03:24:39;0.73;;;0.50;;
65187;SDS011;51775;51.148;6.950;2023-08-07T03:27:05;1.00;;;0.70;;
65187;SDS011;51775;51.148;6.950;2023-08-07T03:29:30;1.17;;;0.60;;
65187;SDS011;51775;51.148;6.950;2023-08-07T03:31:55;0.73;;;0.60;;
65187;SDS011;51775;51.148;6.950;2023-08-07T03:34:20;1.20;;;0.50;;
65187;SDS011;51775;51.148;6.950;2023-08-07T03:36:46;1.27;;;0.60;;
65187;SDS011;51775;51.148;6.950;2023-08-07T03:39:11;1.95;;;0.90;;
65187;SDS011;51775;51.148;6.950;2023-08-07T03:41:36;1.42;;;0.65;;
65187;SDS011;51775;51.148;6.950;2023-08-07T03:44:01;0.90;;;0.60;;
65187;SDS011;51775;51.148;6.950;2023-08-07T03:46:27;0.63;;;0.50;;
65187;SDS011;51775;51.148;6.950;2023-08-07T03:48:52;1.88;;;0.80;;
65187;SDS011;51775;51.148;6.950;2023-08-07T03:51:17;0.63;;;0.40;;
65187;SDS011;51775;51.148;6.950;2023-08-07T03:53:43;0.90;;;0.70;;
65187;SDS011;51775;51.148;6.950;2023-08-07T03:56:08;1.25;;;0.65;;
65187;SDS011;51775;51.148;6.950;2023-08-07T03:58:34;1.10;;;0.60;;
65187;SDS011;51775;51.148;6.950;2023-08-07T04:00:59;1.23;;;0.60;;
65187;SDS011;51775;51.148;6.950;2023-08-07T04:03:24;1.02;;;0.60;;
65187;SDS011;51775;51.148;6.950;2023-08-07T04:05:53;1.08;;;0.60;;
65187;SDS011;51775;51.148;6.950;2023-08-07T04:08:20;1.05;;;0.70;;
65187;SDS011;51775;51.148;6.950;2023-08-07T04:10:56;1.33;;;0.73;;
65187;SDS011;51775;51.148;6.950;2023-08-07T04:13:24;1.38;;;0.70;;
65187;SDS011;51775;51.148;6.950;2023-08-07T04:15:50;0.88;;;0.60;;
65187;SDS011;51775;51.148;6.950;2023-08-07T04:18:15;1.35;;;0.70;;
65187;SDS011;51775;51.148;6.950;2023-08-07T04:20:40;1.20;;;0.68;;
65187;SDS011;51775;51.148;6.950;2023-08-07T04:23:06;1.17;;;0.57;;
65187;SDS011;51775;51.148;6.950;2023-08-07T04:25:31;1.38;;;0.70;;
65187;SDS011;51775;51.148;6.950;2023-08-07T04:27:56;1.25;;;0.75;;
65187;SDS011;51775;51.148;6.950;2023-08-07T04:30:21;1.23;;;0.60;;
65187;SDS011;51775;51.148;6.950;2023-08-07T04:32:47;1.00;;;0.60;;
65187;SDS011;51775;51.148;6.950;2023-08-07T04:35:12;1.30;;;0.70;;
65187;SDS011;51775;51.148;6.950;2023-08-07T04:37:37;1.48;;;0.70;;
65187;SDS011;51775;51.148;6.950;2023-08-07T04:40:02;0.98;;;0.60;;
65187;SDS011;51775;51.148;6.950;2023-08-07T04:42:28;1.13;;;0.73;;
65187;SDS011;51775;51.148;6.950;2023-08-07T04:44:53;1.00;;;0.65;;
65187;SDS011;51775;51.148;6.950;2023-08-07T04:47:18;1.17;;;0.70;;
65187;SDS011;51775;51.148;6.950;2023-08-07T04:49:44;1.02;;;0.60;;
65187;SDS011;51775;51.148;6.950;2023-08-07T04:52:09;1.52;;;0.70;;
65187;SDS011;51775;51.148;6.950;2023-08-07T04:54:34;1.45;;;0.75;;
65187;SDS011;51775;51.148;6.950;2023-08-07T04:56:59;1.45;;;0.75;;
65187;SDS011;51775;51.148;6.950;2023-08-07T04:59:25;1.08;;;0.77;;
65187;SDS011;51775;51.148;6.950;2023-08-07T05:01:50;1.20;;;0.70;;
65187;SDS011;51775;51.148;6.950;2023-08-07T05:04:15;1.30;;;0.80;;
65187;SDS011;51775;51.148;6.950;2023-08-07T05:06:43;1.15;;;0.70;;
65187;SDS011;51775;51.148;6.950;2023-08-07T05:09:08;1.33;;;0.70;;
65187;SDS011;51775;51.148;6.950;2023-08-07T05:11:33;1.27;;;0.70;;
65187;SDS011;51775;51.148;6.950;2023-08-07T05:13:59;0.95;;;0.60;;
65187;SDS011;51775;51.148;6.950;2023-08-07T05:16:24;1.30;;;0.63;;
65187;SDS011;51775;51.148;6.950;2023-08-07T05:18:49;1.00;;;0.70;;
65187;SDS011;51775;51.148;6.950;2023-08-07T05:21:14;1.55;;;0.70;;
65187;SDS011;51775;51.148;6.950;2023-08-07T05:23:40;1.05;;;0.60;;
65187;SDS011;51775;51.148;6.950;2023-08-07T05:26:05;0.68;;;0.50;;
65187;SDS011;51775;51.148;6.950;2023-08-07T05:28:30;1.02;;;0.70;;
65187;SDS011;51775;51.148;6.950;2023-08-07T05:30:55;1.67;;;0.75;;
65187;SDS011;51775;51.148;6.950;2023-08-07T05:33:21;1.05;;;0.77;;
65187;SDS011;51775;51.148;6.950;2023-08-07T05:35:46;3.13;;;0.90;;
65187;SDS011;51775;51.148;6.950;2023-08-07T05:38:11;1.55;;;0.68;;
65187;SDS011;51775;51.148;6.950;2023-08-07T05:40:37;2.90;;;0.70;;
65187;SDS011;51775;51.148;6.950;2023-08-07T05:43:02;1.92;;;0.80;;
65187;SDS011;51775;51.148;6.950;2023-08-07T05:45:28;1.38;;;0.75;;
65187;SDS011;51775;51.148;6.950;2023-08-07T05:47:53;2.33;;;0.90;;
65187;SDS011;51775;51.148;6.950;2023-08-07T05:50:18;3.00;;;1.00;;
65187;SDS011;51775;51.148;6.950;2023-08-07T05:52:44;2.08;;;0.88;;
65187;SDS011;51775;51.148;6.950;2023-08-07T05:55:09;2.35;;;1.00;;
65187;SDS011;51775;51.148;6.950;2023-08-07T05:57:34;2.33;;;0.80;;
65187;SDS011;51775;51.148;6.950;2023-08-07T05:59:59;1.75;;;0.80;;
65187;SDS011;51775;51.148;6.950;2023-08-07T06:02:25;2.20;;;0.88;;
65187;SDS011;51775;51.148;6.950;2023-08-07T06:04:50;1.85;;;0.77;;
65187;SDS011;51775;51.148;6.950;2023-08-07T06:07:15;2.00;;;0.98;;
65187;SDS011;51775;51.148;6.950;2023-08-07T06:09:41;1.63;;;0.80;;
65187;SDS011;51775;51.148;6.950;2023-08-07T06:12:06;1.60;;;0.80;;
65187;SDS011;51775;51.148;6.950;2023-08-07T06:14:32;1.58;;;0.80;;
65187;SDS011;51775;51.148;6.950;2023-08-07T06:16:57;2.00;;;0.90;;
65187;SDS011;51775;51.148;6.950;2023-08-07T06:19:22;2.78;;;0.90;;
65187;SDS011;51775;51.148;6.950;2023-08-07T06:21:48;2.75;;;0.80;;
65187;SDS011;51775;51.148;6.950;2023-08-07T06:24:13;1.85;;;0.80;;
65187;SDS011;51775;51.148;6.950;2023-08-07T06:26:38;2.78;;;0.90;;
65187;SDS011;51775;51.148;6.950;2023-08-07T06:29:04;2.97;;;0.90;;
65187;SDS011;51775;51.148;6.950;2023-08-07T06:31:29;2.33;;;0.70;;
65187;SDS011;51775;51.148;6.950;2023-08-07T06:33:54;2.55;;;0.90;;
65187;SDS011;51775;51.148;6.950;2023-08-07T06:36:20;1.65;;;0.88;;
65187;SDS011;51775;51.148;6.950;2023-08-07T06:38:46;2.20;;;0.93;;
65187;SDS011;51775;51.148;6.950;2023-08-07T06:41:12;2.28;;;0.90;;
65187;SDS011;51775;51.148;6.950;2023-08-07T06:43:37;1.33;;;0.80;;
65187;SDS011;51775;51.148;6.950;2023-08-07T06:46:02;1.70;;;0.87;;
65187;SDS011;51775;51.148;6.950;2023-08-07T06:48:28;1.77;;;0.90;;
65187;SDS011;51775;51.148;6.950;2023-08-07T06:50:53;2.42;;;1.00;;
65187;SDS011;51775;51.148;6.950;2023-08-07T06:53:19;1.67;;;0.93;;
65187;SDS011;51775;51.148;6.950;2023-08-07T06:55:44;3.33;;;0.90;;
65187;SDS011;51775;51.148;6.950;2023-08-07T06:58:10;3.05;;;1.08;;
65187;SDS011;51775;51.148;6.950;2023-08-07T07:00:35;2.72;;;1.10;;
65187;SDS011;51775;51.148;6.950;2023-08-07T07:03:01;1.35;;;0.77;;
65187;SDS011;51775;51.148;6.950;2023-08-07T07:05:27;1.63;;;0.90;;
65187;SDS011;51775;51.148;6.950;2023-08-07T07:07:53;2.72;;;0.90;;
65187;SDS011;51775;51.148;6.950;2023-08-07T07:10:18;1.65;;;0.93;;
65187;SDS011;51775;51.148;6.950;2023-08-07T07:12:43;2.38;;;0.80;;
65187;SDS011;51775;51.148;6.950;2023-08-07T07:15:09;2.05;;;0.80;;
65187;SDS011;51775;51.148;6.950;2023-08-07T07:17:34;1.02;;;0.80;;
65187;SDS011;51775;51.148;6.950;2023-08-07T07:20:00;1.48;;;0.77;;
65187;SDS011;51775;51.148;6.950;2023-08-07T07:22:25;0.82;;;0.70;;
65187;SDS011;51775;51.148;6.950;2023-08-07T07:24:50;1.85;;;0.80;;
65187;SDS011;51775;51.148;6.950;2023-08-07T07:27:16;1.75;;;0.90;;
65187;SDS011;51775;51.148;6.950;2023-08-07T07:29:41;2.63;;;1.05;;
65187;SDS011;51775;51.148;6.950;2023-08-07T07:32:06;1.80;;;0.70;;
65187;SDS011;51775;51.148;6.950;2023-08-07T07:34:32;1.13;;;0.80;;
65187;SDS011;51775;51.148;6.950;2023-08-07T07:36:57;0.95;;;0.80;;
65187;SDS011;51775;51.148;6.950;2023-08-07T07:39:22;1.48;;;0.80;;
65187;SDS011;51775;51.148;6.950;2023-08-07T07:41:48;2.65;;;0.80;;
65187;SDS011;51775;51.148;6.950;2023-08-07T07:44:13;1.50;;;0.80;;
65187;SDS011;51775;51.148;6.950;2023-08-07T07:46:38;1.23;;;0.80;;
65187;SDS011;51775;51.148;6.950;2023-08-07T07:49:04;1.20;;;0.60;;
65187;SDS011;51775;51.148;6.950;2023-08-07T07:51:29;1.27;;;0.80;;
65187;SDS011;51775;51.148;6.950;2023-08-07T07:53:54;1.30;;;0.85;;
65187;SDS011;51775;51.148;6.950;2023-08-07T07:56:19;1.90;;;0.80;;
65187;SDS011;51775;51.148;6.950;2023-08-07T07:58:45;1.30;;;0.70;;
65187;SDS011;51775;51.148;6.950;2023-08-07T08:01:10;1.40;;;0.80;;
65187;SDS011;51775;51.148;6.950;2023-08-07T08:03:35;5.13;;;0.90;;
65187;SDS011;51775;51.148;6.950;2023-08-07T08:06:00;1.13;;;0.63;;
65187;SDS011;51775;51.148;6.950;2023-08-07T08:08:26;1.55;;;0.70;;
65187;SDS011;51775;51.148;6.950;2023-08-07T08:10:51;1.20;;;0.70;;
65187;SDS011;51775;51.148;6.950;2023-08-07T08:13:17;1.25;;;0.70;;
65187;SDS011;51775;51.148;6.950;2023-08-07T08:15:42;1.10;;;0.70;;
65187;SDS011;51775;51.148;6.950;2023-08-07T08:18:08;1.80;;;0.80;;
65187;SDS011;51775;51.148;6.950;2023-08-07T08:20:34;1.33;;;0.80;;
65187;SDS011;51775;51.148;6.950;2023-08-07T08:22:59;1.33;;;0.70;;
65187;SDS011;51775;51.148;6.950;2023-08-07T08:25:24;2.38;;;0.90;;
65187;SDS011;51775;51.148;6.950;2023-08-07T08:27:49;1.13;;;0.80;;
65187;SDS011;51775;51.148;6.950;2023-08-07T08:30:15;1.00;;;0.70;;
65187;SDS011;51775;51.148;6.950;2023-08-07T08:32:40;1.25;;;0.80;;
65187;SDS011;51775;51.148;6.950;2023-08-07T08:35:05;2.05;;;0.90;;
65187;SDS011;51775;51.148;6.950;2023-08-07T08:37:31;1.35;;;0.70;;
65187;SDS011;51775;51.148;6.950;2023-08-07T08:39:56;1.00;;;0.60;;
65187;SDS011;51775;51.148;6.950;2023-08-07T08:42:21;1.67;;;0.80;;
65187;SDS011;51775;51.148;6.950;2023-08-07T08:44:56;1.60;;;0.80;;
65187;SDS011;51775;51.148;6.950;2023-08-07T08:47:25;1.33;;;0.70;;
65187;SDS011;51775;51.148;6.950;2023-08-07T08:49:54;1.20;;;0.80;;
65187;SDS011;51775;51.148;6.950;2023-08-07T08:52:25;1.48;;;0.80;;
65187;SDS011;51775;51.148;6.950;2023-08-07T08:54:52;1.25;;;0.73;;
65187;SDS011;51775;51.148;6.950;2023-08-07T08:57:20;1.75;;;0.70;;
65187;SDS011;51775;51.148;6.950;2023-08-07T08:59:47;2.17;;;0.77;;
65187;SDS011;51775;51.148;6.950;2023-08-07T09:02:12;1.17;;;0.77;;
65187;SDS011;51775;51.148;6.950;2023-08-07T09:04:38;1.55;;;0.73;;
65187;SDS011;51775;51.148;6.950;2023-08-07T09:07:03;1.30;;;0.80;;
65187;SDS011;51775;51.148;6.950;2023-08-07T09:09:29;1.25;;;0.70;;
65187;SDS011;51775;51.148;6.950;2023-08-07T09:11:55;3.35;;;0.90;;
65187;SDS011;51775;51.148;6.950;2023-08-07T09:14:24;1.70;;;0.80;;
65187;SDS011;51775;51.148;6.950;2023-08-07T09:16:52;1.45;;;0.73;;
65187;SDS011;51775;51.148;6.950;2023-08-07T09:19:18;1.13;;;0.70;;
65187;SDS011;51775;51.148;6.950;2023-08-07T09:21:44;1.77;;;0.90;;
65187;SDS011;51775;51.148;6.950;2023-08-07T09:24:09;2.22;;;0.95;;
65187;SDS011;51775;51.148;6.950;2023-08-07T09:26:34;4.63;;;1.00;;
65187;SDS011;51775;51.148;6.950;2023-08-07T09:29:00;2.80;;;0.85;;
65187;SDS011;51775;51.148;6.950;2023-08-07T09:31:27;1.40;;;0.70;;
65187;SDS011;51775;51.148;6.950;2023-08-07T09:33:52;1.60;;;0.93;;
65187;SDS011;51775;51.148;6.950;2023-08-07T09:36:17;3.38;;;1.02;;
65187;SDS011;51775;51.148;6.950;2023-08-07T09:38:43;1.75;;;0.77;;
65187;SDS011;51775;51.148;6.950;2023-08-07T09:41:15;1.77;;;0.85;;
65187;SDS011;51775;51.148;6.950;2023-08-07T09:43:42;1.30;;;0.65;;
65187;SDS011;51775;51.148;6.950;2023-08-07T09:46:07;2.03;;;0.80;;
65187;SDS011;51775;51.148;6.950;2023-08-07T09:48:40;2.25;;;0.82;;
65187;SDS011;51775;51.148;6.950;2023-08-07T09:51:06;1.42;;;0.80;;
65187;SDS011;51775;51.148;6.950;2023-08-07T09:53:31;1.77;;;0.90;;
65187;SDS011;51775;51.148;6.950;2023-08-07T09:55:57;2.63;;;0.77;;
65187;SDS011;51775;51.148;6.950;2023-08-07T09:58:23;1.35;;;0.80;;
65187;SDS011;51775;51.148;6.950;2023-08-07T10:00:49;1.98;;;0.90;;
65187;SDS011;51775;51.148;6.950;2023-08-07T10:03:15;1.77;;;0.90;;
65187;SDS011;51775;51.148;6.950;2023-08-07T10:05:41;1.98;;;0.80;;
65187;SDS011;51775;51.148;6.950;2023-08-07T10:08:08;1.95;;;1.00;;
65187;SDS011;51775;51.148;6.950;2023-08-07T10:10:35;2.38;;;0.93;;
65187;SDS011;51775;51.148;6.950;2023-08-07T10:13:01;1.52;;;0.80;;
65187;SDS011;51775;51.148;6.950;2023-08-07T10:15:27;1.10;;;0.70;;
65187;SDS011;51775;51.148;6.950;2023-08-07T10:17:53;1.52;;;0.80;;
65187;SDS011;51775;51.148;6.950;2023-08-07T10:20:18;2.58;;;0.90;;
65187;SDS011;51775;51.148;6.950;2023-08-07T10:22:45;1.50;;;0.70;;
65187;SDS011;51775;51.148;6.950;2023-08-07T10:25:11;1.70;;;0.85;;
65187;SDS011;51775;51.148;6.950;2023-08-07T10:27:37;1.73;;;0.90;;
65187;SDS011;51775;51.148;6.950;2023-08-07T10:30:09;1.70;;;0.80;;
65187;SDS011;51775;51.148;6.950;2023-08-07T10:32:36;1.77;;;0.80;;
65187;SDS011;51775;51.148;6.950;2023-08-07T10:35:03;1.55;;;0.60;;
65187;SDS011;51775;51.148;6.950;2023-08-07T10:37:32;3.13;;;0.80;;
65187;SDS011;51775;51.148;6.950;2023-08-07T10:42:49;1.42;;;0.77;;
65187;SDS011;51775;51.148;6.950;2023-08-07T10:45:16;2.28;;;0.90;;
65187;SDS011;51775;51.148;6.950;2023-08-07T10:47:42;0.80;;;0.60;;
65187;SDS011;51775;51.148;6.950;2023-08-07T10:50:09;1.05;;;0.63;;
65187;SDS011;51775;51.148;6.950;2023-08-07T10:52:34;1.35;;;0.73;;
65187;SDS011;51775;51.148;6.950;2023-08-07T10:55:03;1.13;;;0.60;;
65187;SDS011;51775;51.148;6.950;2023-08-07T10:57:39;1.25;;;0.80;;
65187;SDS011;51775;51.148;6.950;2023-08-07T11:00:05;1.45;;;0.80;;
65187;SDS011;51775;51.148;6.950;2023-08-07T11:02:31;2.50;;;0.77;;
65187;SDS011;51775;51.148;6.950;2023-08-07T11:04:56;1.45;;;0.70;;
65187;SDS011;51775;51.148;6.950;2023-08-07T11:07:25;2.08;;;0.80;;
65187;SDS011;51775;51.148;6.950;2023-08-07T11:09:51;1.45;;;0.70;;
65187;SDS011;51775;51.148;6.950;2023-08-07T11:12:16;1.48;;;0.80;;
65187;SDS011;51775;51.148;6.950;2023-08-07T11:14:42;1.10;;;0.57;;
65187;SDS011;51775;51.148;6.950;2023-08-07T11:17:07;1.20;;;0.73;;
65187;SDS011;51775;51.148;6.950;2023-08-07T11:19:33;1.58;;;0.80;;
65187;SDS011;51775;51.148;6.950;2023-08-07T11:21:58;1.70;;;0.70;;
65187;SDS011;51775;51.148;6.950;2023-08-07T11:24:23;1.30;;;0.70;;
65187;SDS011;51775;51.148;6.950;2023-08-07T11:26:51;1.83;;;0.90;;
65187;SDS011;51775;51.148;6.950;2023-08-07T11:29:20;2.08;;;0.75;;
65187;SDS011;51775;51.148;6.950;2023-08-07T11:31:46;1.88;;;0.70;;
65187;SDS011;51775;51.148;6.950;2023-08-07T11:34:11;1.67;;;0.90;;
65187;SDS011;51775;51.148;6.950;2023-08-07T11:36:50;1.17;;;0.70;;
65187;SDS011;51775;51.148;6.950;2023-08-07T11:39:16;1.38;;;0.70;;
65187;SDS011;51775;51.148;6.950;2023-08-07T11:41:44;1.85;;;0.73;;
65187;SDS011;51775;51.148;6.950;2023-08-07T11:44:10;1.58;;;0.82;;
65187;SDS011;51775;51.148;6.950;2023-08-07T11:46:35;1.35;;;0.73;;
65187;SDS011;51775;51.148;6.950;2023-08-07T11:49:00;1.55;;;0.90;;
65187;SDS011;51775;51.148;6.950;2023-08-07T11:51:26;1.55;;;0.80;;
65187;SDS011;51775;51.148;6.950;2023-08-07T11:53:53;1.67;;;0.70;;
65187;SDS011;51775;51.148;6.950;2023-08-07T11:56:18;1.70;;;0.80;;
65187;SDS011;51775;51.148;6.950;2023-08-07T11:58:44;1.30;;;0.80;;
65187;SDS011;51775;51.148;6.950;2023-08-07T12:01:14;1.73;;;0.80;;
65187;SDS011;51775;51.148;6.950;2023-08-07T12:04:13;1.20;;;0.70;;
65187;SDS011;51775;51.148;6.950;2023-08-07T12:06:32;1.55;;;0.80;;
65187;SDS011;51775;51.148;6.950;2023-08-07T12:08:57;1.52;;;0.80;;
65187;SDS011;51775;51.148;6.950;2023-08-07T12:11:24;1.30;;;0.80;;
65187;SDS011;51775;51.148;6.950;2023-08-07T12:13:49;0.82;;;0.55;;
65187;SDS011;51775;51.148;6.950;2023-08-07T12:16:16;2.10;;;0.80;;
65187;SDS011;51775;51.148;6.950;2023-08-07T12:18:45;2.35;;;0.80;;
65187;SDS011;51775;51.148;6.950;2023-08-07T12:21:13;1.23;;;0.77;;
65187;SDS011;51775;51.148;6.950;2023-08-07T12:23:39;1.73;;;0.80;;
65187;SDS011;51775;51.148;6.950;2023-08-07T12:26:05;1.90;;;0.82;;
65187;SDS011;51775;51.148;6.950;2023-08-07T12:28:31;2.90;;;0.85;;
65187;SDS011;51775;51.148;6.950;2023-08-07T12:30:56;1.13;;;0.60;;
65187;SDS011;51775;51.148;6.950;2023-08-07T12:33:21;2.58;;;0.95;;
65187;SDS011;51775;51.148;6.950;2023-08-07T12:35:46;1.38;;;0.80;;
65187;SDS011;51775;51.148;6.950;2023-08-07T12:38:12;1.63;;;0.70;;
65187;SDS011;51775;51.148;6.950;2023-08-07T12:40:37;1.17;;;0.70;;
65187;SDS011;51775;51.148;6.950;2023-08-07T12:43:03;1.48;;;0.80;;
65187;SDS011;51775;51.148;6.950;2023-08-07T12:45:31;1.63;;;0.80;;
65187;SDS011;51775;51.148;6.950;2023-08-07T12:47:56;1.27;;;0.70;;
65187;SDS011;51775;51.148;6.950;2023-08-07T12:50:21;5.75;;;0.73;;
65187;SDS011;51775;51.148;6.950;2023-08-07T12:52:47;2.35;;;0.93;;
65187;SDS011;51775;51.148;6.950;2023-08-07T12:55:12;2.88;;;0.80;;
65187;SDS011;51775;51.148;6.950;2023-08-07T12:57:41;4.03;;;0.80;;
65187;SDS011;51775;51.148;6.950;2023-08-07T13:00:07;1.80;;;0.73;;
65187;SDS011;51775;51.148;6.950;2023-08-07T13:02:33;3.35;;;0.90;;
65187;SDS011;51775;51.148;6.950;2023-08-07T13:04:58;1.25;;;0.73;;
65187;SDS011;51775;51.148;6.950;2023-08-07T13:07:23;1.10;;;0.70;;
65187;SDS011;51775;51.148;6.950;2023-08-07T13:09:49;1.73;;;0.82;;
65187;SDS011;51775;51.148;6.950;2023-08-07T13:12:14;1.87;;;0.87;;
65187;SDS011;51775;51.148;6.950;2023-08-07T13:14:39;2.50;;;0.80;;
65187;SDS011;51775;51.148;6.950;2023-08-07T13:17:05;1.30;;;0.80;;
65187;SDS011;51775;51.148;6.950;2023-08-07T13:19:30;2.08;;;0.70;;
65187;SDS011;51775;51.148;6.950;2023-08-07T13:21:55;1.63;;;0.80;;
65187;SDS011;51775;51.148;6.950;2023-08-07T13:24:20;2.25;;;0.95;;
65187;SDS011;51775;51.148;6.950;2023-08-07T13:26:46;1.65;;;0.80;;
65187;SDS011;51775;51.148;6.950;2023-08-07T13:29:11;2.38;;;0.80;;
65187;SDS011;51775;51.148;6.950;2023-08-07T13:31:37;2.00;;;0.80;;
65187;SDS011;51775;51.148;6.950;2023-08-07T13:34:02;2.28;;;1.08;;
65187;SDS011;51775;51.148;6.950;2023-08-07T13:36:27;4.40;;;0.93;;
65187;SDS011;51775;51.148;6.950;2023-08-07T13:38:53;1.30;;;0.82;;
65187;SDS011;51775;51.148;6.950;2023-08-07T13:41:18;1.27;;;0.60;;
65187;SDS011;51775;51.148;6.950;2023-08-07T13:43:43;2.05;;;0.80;;
65187;SDS011;51775;51.148;6.950;2023-08-07T13:46:08;1.73;;;0.82;;
65187;SDS011;51775;51.148;6.950;2023-08-07T13:48:34;1.50;;;0.80;;
65187;SDS011;51775;51.148;6.950;2023-08-07T13:50:59;1.63;;;0.80;;
65187;SDS011;51775;51.148;6.950;2023-08-07T13:53:24;0.93;;;0.70;;
65187;SDS011;51775;51.148;6.950;2023-08-07T13:55:49;1.92;;;1.00;;
65187;SDS011;51775;51.148;6.950;2023-08-07T13:58:15;1.20;;;0.80;;
65187;SDS011;51775;51.148;6.950;2023-08-07T14:00:40;2.20;;;1.00;;
65187;SDS011;51775;51.148;6.950;2023-08-07T14:03:06;1.88;;;0.80;;
65187;SDS011;51775;51.148;6.950;2023-08-07T14:05:31;2.88;;;0.80;;
65187;SDS011;51775;51.148;6.950;2023-08-07T14:07:56;1.15;;;0.70;;
65187;SDS011;51775;51.148;6.950;2023-08-07T14:10:22;2.78;;;0.77;;
65187;SDS011;51775;51.148;6.950;2023-08-07T14:12:47;1.38;;;0.80;;
65187;SDS011;51775;51.148;6.950;2023-08-07T14:15:12;2.53;;;0.70;;
65187;SDS011;51775;51.148;6.950;2023-08-07T14:17:37;2.83;;;0.80;;
65187;SDS011;51775;51.148;6.950;2023-08-07T14:20:03;1.25;;;0.68;;
65187;SDS011;51775;51.148;6.950;2023-08-07T14:22:29;1.48;;;0.70;;
65187;SDS011;51775;51.148;6.950;2023-08-07T14:24:54;1.35;;;0.77;;
65187;SDS011;51775;51.148;6.950;2023-08-07T14:27:19;3.33;;;0.80;;
65187;SDS011;51775;51.148;6.950;2023-08-07T14:29:44;1.90;;;0.80;;
65187;SDS011;51775;51.148;6.950;2023-08-07T14:32:10;1.52;;;0.80;;
65187;SDS011;51775;51.148;6.950;2023-08-07T14:34:35;1.52;;;0.80;;
65187;SDS011;51775;51.148;6.950;2023-08-07T14:37:00;2.38;;;0.90;;
65187;SDS011;51775;51.148;6.950;2023-08-07T14:39:25;1.63;;;1.00;;
65187;SDS011;51775;51.148;6.950;2023-08-07T14:41:51;1.50;;;0.70;;
65187;SDS011;51775;51.148;6.950;2023-08-07T14:44:16;1.13;;;0.75;;
65187;SDS011;51775;51.148;6.950;2023-08-07T14:46:41;2.35;;;0.82;;
65187;SDS011;51775;51.148;6.950;2023-08-07T14:49:06;1.98;;;0.80;;